Ottumwa Regional Airport
KOTM : now visible

Airfield :











YOU CAN JOIN US ON...

 
LOGIN :

Register | Disclaimer

   EN    FR    IT 

 









Legend :    VFR   Marginal VFR   IFR   Intensive IFR   Very Intensive IFR
Visi :
Ceiling :
>= 8 km
>= 3000ft
5 to 8 km
1000 to 3000 ft
1500m to 5 km
500 to 1000 ft
800 to 1500m
200 to 500 ft
< 800m
< 200 ft
Symbols :   Thunderstorms  Fog  Heavy snow  Heavy precipitations  Wind > 20 kt






- Airport Elevation : 845 ft
- IATA code : OTM


KOTM - Ottumwa Regional

CURRENT METAR :
  • 300053Z AUTO 33020G27KT 10SM OVC035 01/M05 A3018 RMK AO2 PK WND 31030/0024 SLP229 T00061050

EXPIRED METARs :
  • 292353Z AUTO 33017G26KT 10SM OVC036 01/M04 A3015 RMK AO2 PK WND 33031/2328 SLP216 T00111044 10044 20011 51013
  • 292253Z AUTO 33021G29KT 10SM OVC034 02/M04 A3013 RMK AO2 PK WND 33032/2207 SLP211 T00171039

TAF KOTM
Valid from the 30 at 00:00 until the 01 at 00:00 UTC


292329Z 3000/3024 33016KT P6SM BKN035
FM300600 34014KT P6SM SKC
FM302300 32006KT P6SM SKC
KZAU FIR / North America



MET'MAP, your aeronautical weather chart ! - Copyright ORBIFLY December 2007 - Disclaimer

ORBIFLY MET'MAP TEAM :

Programming & Development : Alexandra Zaïnal
Concept & original design : Baudouin d'Aumeries
Assistance for programming : Marc-Olivier Méhu
Technical & hardware support : Manuel Goepfert

Contact : metmap@orbifly.com




SOURCES & CREDITS :

   NOAA       Earth
Advisory